createdAt,value
2019-04-25T00:01:25.033Z,73.70
2019-04-25T00:03:54.699Z,74.10
2019-04-25T00:06:25.945Z,74.20
2019-04-25T00:08:55.258Z,74.20
2019-04-25T00:11:24.813Z,74.20
2019-04-25T00:13:54.117Z,73.00
2019-04-25T00:16:25.051Z,74.00
2019-04-25T00:18:54.418Z,72.40
2019-04-25T00:21:28.300Z,72.50
2019-04-25T00:23:59.316Z,72.50
2019-04-25T00:26:31.178Z,72.30
2019-04-25T00:29:01.957Z,73.30
2019-04-25T00:31:31.986Z,72.00
2019-04-25T00:34:02.166Z,72.30
2019-04-25T00:36:31.929Z,71.80
2019-04-25T00:39:02.286Z,71.50
2019-04-25T00:41:34.187Z,71.10
2019-04-25T00:44:04.106Z,71.30
2019-04-25T00:46:34.484Z,71.10
2019-04-25T00:49:04.037Z,70.70
2019-04-25T00:51:33.352Z,71.80
2019-04-25T00:54:02.653Z,71.70
2019-04-25T00:56:32.251Z,72.00
2019-04-25T00:59:06.061Z,71.80
2019-04-25T01:01:36.996Z,71.90
2019-04-25T01:04:06.446Z,72.10
2019-04-25T01:06:36.835Z,71.60
2019-04-25T01:09:09.492Z,72.00
2019-04-25T01:11:38.937Z,71.90
2019-04-25T01:14:08.342Z,71.60
2019-04-25T01:16:37.715Z,71.50
2019-04-25T01:19:07.004Z,71.30
2019-04-25T01:21:36.313Z,70.90
2019-04-25T01:24:05.813Z,71.50
2019-04-25T01:26:35.129Z,69.00
2019-04-25T01:29:05.765Z,67.60
2019-04-25T01:31:35.420Z,66.50
2019-04-25T01:34:06.789Z,66.00
2019-04-25T01:36:55.026Z,65.70
2019-04-25T01:39:26.873Z,65.60
2019-04-25T01:42:14.471Z,66.10
2019-04-25T01:44:45.477Z,66.40
2019-04-25T01:47:16.397Z,66.50
2019-04-25T01:49:45.698Z,66.90
2019-04-25T01:52:15.078Z,66.80
2019-04-25T01:54:44.378Z,66.90
2019-04-25T01:57:14.325Z,67.20
2019-04-25T01:59:43.975Z,68.30
2019-04-25T02:02:15.079Z,67.90
2019-04-25T02:04:44.412Z,67.60
2019-04-25T02:07:13.996Z,68.60
2019-04-25T02:09:43.622Z,69.50
2019-04-25T02:12:15.550Z,69.70
2019-04-25T02:14:45.155Z,70.10
2019-04-25T02:17:15.068Z,70.20
2019-04-25T02:19:44.358Z,70.30
2019-04-25T02:22:14.551Z,71.80
2019-04-25T02:24:44.950Z,69.90
2019-04-25T02:27:14.261Z,69.20
2019-04-25T02:29:44.735Z,69.90
2019-04-25T02:32:14.905Z,69.20
2019-04-25T02:34:45.540Z,69.40
2019-04-25T02:37:15.117Z,70.10
2019-04-25T02:39:44.869Z,71.00
2019-04-25T02:42:16.963Z,69.90
2019-04-25T02:44:47.129Z,71.00
2019-04-25T02:47:21.314Z,71.60
2019-04-25T02:50:07.533Z,71.10
2019-04-25T02:52:36.869Z,70.70
2019-04-25T02:55:10.814Z,70.10
2019-04-25T02:57:38.181Z,70.00
2019-04-25T03:00:10.642Z,69.90
2019-04-25T03:02:40.110Z,69.10
2019-04-25T03:05:10.098Z,69.40
2019-04-25T03:07:39.776Z,68.60
2019-04-25T03:10:11.033Z,67.70
2019-04-25T03:12:40.334Z,67.30
2019-04-25T03:15:10.326Z,66.50
2019-04-25T03:17:40.041Z,66.30
2019-04-25T03:20:29.383Z,66.20
2019-04-25T03:23:01.185Z,66.20
2019-04-25T03:25:30.699Z,66.40
2019-04-25T03:28:01.142Z,69.20
2019-04-25T03:30:30.654Z,66.00
2019-04-25T03:33:02.221Z,67.00
2019-04-25T03:35:31.064Z,67.30
2019-04-25T03:38:01.244Z,67.70
2019-04-25T03:40:31.553Z,68.10
2019-04-25T03:43:01.300Z,69.10
2019-04-25T03:45:30.965Z,67.80
2019-04-25T03:48:01.150Z,68.20
2019-04-25T03:50:31.249Z,67.70
2019-04-25T03:53:00.607Z,65.80
2019-04-25T03:55:29.936Z,66.10
2019-04-25T03:57:59.247Z,65.40
2019-04-25T04:00:28.707Z,65.50
2019-04-25T04:02:58.085Z,65.90
2019-04-25T04:05:27.406Z,66.70
2019-04-25T04:07:56.709Z,67.50
2019-04-25T04:10:27.098Z,66.40
2019-04-25T04:12:56.456Z,66.40
2019-04-25T04:15:25.953Z,66.90
2019-04-25T04:17:56.914Z,66.00
2019-04-25T04:20:30.840Z,65.60
2019-04-25T04:23:11.346Z,64.20
2019-04-25T04:25:40.834Z,63.00
2019-04-25T04:28:10.149Z,63.20
2019-04-25T04:30:39.536Z,62.30
2019-04-25T04:33:21.495Z,61.80
2019-04-25T04:35:40.938Z,61.30
2019-04-25T04:38:10.237Z,60.90
2019-04-25T04:40:39.600Z,61.40
2019-04-25T04:43:09.621Z,62.30
2019-04-25T04:45:39.172Z,63.10
2019-04-25T04:48:08.756Z,64.60
2019-04-25T04:50:38.149Z,63.70
2019-04-25T04:53:07.472Z,64.40
2019-04-25T04:55:36.789Z,65.30
2019-04-25T04:58:06.121Z,65.80
2019-04-25T05:00:35.478Z,67.00
2019-04-25T05:03:09.036Z,67.30
2019-04-25T05:05:39.282Z,67.40
2019-04-25T05:08:16.454Z,66.30
2019-04-25T05:10:46.711Z,67.00
2019-04-25T05:13:16.775Z,67.40
2019-04-25T05:15:47.081Z,67.60
2019-04-25T05:18:33.016Z,67.10
2019-04-25T05:20:48.599Z,66.30
2019-04-25T05:23:18.816Z,65.70
2019-04-25T05:25:48.220Z,65.80
2019-04-25T05:28:18.534Z,65.40
2019-04-25T05:30:50.274Z,65.70
2019-04-25T05:33:21.284Z,66.00
2019-04-25T05:35:50.605Z,66.30
2019-04-25T05:38:20.132Z,66.90
2019-04-25T05:40:51.234Z,65.60
2019-04-25T05:43:23.662Z,65.40
2019-04-25T05:45:54.070Z,64.40
2019-04-25T05:48:25.083Z,64.20
2019-04-25T05:50:54.492Z,64.30
2019-04-25T05:53:24.222Z,62.80
2019-04-25T05:55:54.393Z,63.20
2019-04-25T05:58:24.820Z,63.60
2019-04-25T06:00:55.375Z,63.90
2019-04-25T06:03:26.052Z,62.90
2019-04-25T06:05:55.699Z,63.30
2019-04-25T06:08:26.843Z,63.00
2019-04-25T06:11:00.638Z,62.80
2019-04-25T06:13:33.383Z,62.90
2019-04-25T06:16:04.493Z,62.70
2019-04-25T06:18:37.985Z,62.00
2019-04-25T06:21:10.016Z,62.60
2019-04-25T06:23:49.667Z,61.30
2019-04-25T06:26:30.867Z,59.60
2019-04-25T06:28:57.094Z,59.00
2019-04-25T06:31:21.461Z,57.90
2019-04-25T06:33:53.787Z,58.10
2019-04-25T06:36:24.534Z,58.50
2019-04-25T06:38:54.223Z,57.90
2019-04-25T06:41:25.613Z,58.10
2019-04-25T06:43:56.309Z,58.20
2019-04-25T06:46:44.133Z,58.60
2019-04-25T06:49:15.193Z,58.30
2019-04-25T06:51:52.005Z,57.90
2019-04-25T06:54:21.960Z,57.60
2019-04-25T06:56:53.563Z,56.80
2019-04-25T06:59:25.907Z,57.00
2019-04-25T07:01:56.092Z,56.70
2019-04-25T07:04:26.499Z,56.70
2019-04-25T07:06:56.253Z,56.30
2019-04-25T07:09:27.310Z,55.40
2019-04-25T07:11:56.628Z,55.80
2019-04-25T07:14:27.097Z,55.50
2019-04-25T07:16:57.088Z,56.00
2019-04-25T07:19:27.126Z,56.30
2019-04-25T07:21:57.672Z,55.40
2019-04-25T07:24:28.792Z,55.50
2019-04-25T07:27:18.414Z,55.80
2019-04-25T07:29:59.836Z,54.50
2019-04-25T07:32:32.954Z,54.40
2019-04-25T07:35:03.707Z,54.10
2019-04-25T07:37:34.940Z,54.50
2019-04-25T07:40:06.645Z,54.20
2019-04-25T07:42:36.327Z,54.50
2019-04-25T07:45:10.224Z,53.70
2019-04-25T07:47:39.724Z,54.00
2019-04-25T07:50:09.789Z,54.00
2019-04-25T07:52:39.265Z,54.00
2019-04-25T07:55:09.003Z,53.60
2019-04-25T07:57:38.660Z,53.60
2019-04-25T08:00:14.226Z,53.60
2019-04-25T08:02:44.027Z,53.10
2019-04-25T08:05:15.779Z,53.10
2019-04-25T08:07:45.369Z,53.20
2019-04-25T08:10:16.226Z,52.10
2019-04-25T08:12:47.477Z,51.30
2019-04-25T08:15:18.919Z,51.80
2019-04-25T08:17:55.793Z,49.60
2019-04-25T08:20:26.152Z,50.90
2019-04-25T08:22:58.921Z,50.60
2019-04-25T08:25:27.151Z,52.30
2019-04-25T08:27:56.674Z,51.40
2019-04-25T08:30:26.058Z,50.80
2019-04-25T08:32:56.547Z,50.20
2019-04-25T08:35:26.047Z,49.20
2019-04-25T08:37:55.357Z,48.90
2019-04-25T08:40:25.021Z,48.60
2019-04-25T08:42:54.437Z,48.30
2019-04-25T08:45:24.464Z,49.00
2019-04-25T08:47:54.004Z,47.70
2019-04-25T08:50:39.666Z,47.40
2019-04-25T08:53:08.194Z,48.70
2019-04-25T08:55:42.094Z,46.90
2019-04-25T08:58:23.564Z,46.80
2019-04-25T09:01:00.699Z,45.90
2019-04-25T09:03:27.383Z,46.00
2019-04-25T09:05:56.787Z,45.50
2019-04-25T09:08:26.147Z,45.80
2019-04-25T09:10:55.474Z,45.80
2019-04-25T09:13:24.802Z,45.10
2019-04-25T09:15:54.193Z,45.70
2019-04-25T09:18:24.510Z,44.30
2019-04-25T09:20:54.097Z,44.20
2019-04-25T09:23:24.587Z,44.70
2019-04-25T09:25:54.432Z,44.20
2019-04-25T09:28:23.973Z,43.80
2019-04-25T09:30:53.998Z,43.20
2019-04-25T09:33:23.511Z,42.80
2019-04-25T09:35:54.056Z,42.40
2019-04-25T09:38:24.389Z,42.40
2019-04-25T09:40:54.204Z,42.00
2019-04-25T09:43:23.742Z,41.40
2019-04-25T09:46:11.274Z,41.20
2019-04-25T09:48:57.460Z,41.30
2019-04-25T09:51:28.424Z,41.00
2019-04-25T09:53:59.388Z,40.00
2019-04-25T09:56:30.344Z,40.20
2019-04-25T09:59:13.847Z,38.40
2019-04-25T10:01:46.213Z,37.90
2019-04-25T10:04:15.494Z,37.80
2019-04-25T10:06:45.888Z,38.30
2019-04-25T10:09:16.225Z,37.00
2019-04-25T10:11:47.174Z,36.90
2019-04-25T10:14:33.856Z,35.10
2019-04-25T10:17:03.885Z,35.20
2019-04-25T10:19:34.444Z,34.50
2019-04-25T10:22:04.010Z,36.80
2019-04-25T10:24:33.369Z,33.20
2019-04-25T10:27:03.707Z,35.20
2019-04-25T10:29:41.583Z,34.70
2019-04-25T10:32:04.722Z,32.70
2019-04-25T10:34:34.105Z,32.90
2019-04-25T10:37:03.868Z,31.60
2019-04-25T10:39:34.026Z,30.50
2019-04-25T10:42:03.707Z,32.00
2019-04-25T10:44:33.819Z,31.90
2019-04-25T10:47:04.541Z,31.50
2019-04-25T10:49:34.479Z,31.10
2019-04-25T10:52:04.864Z,28.70
2019-04-25T10:54:35.223Z,30.30
2019-04-25T10:57:17.015Z,31.30
2019-04-25T10:59:55.198Z,30.40
2019-04-25T11:02:17.617Z,29.70
2019-04-25T11:04:51.750Z,28.90
2019-04-25T11:07:21.354Z,30.00
2019-04-25T11:09:51.339Z,30.10
2019-04-25T11:12:21.422Z,28.90
2019-04-25T11:14:50.796Z,29.70
2019-04-25T11:17:20.197Z,29.10
2019-04-25T11:19:49.500Z,28.50
2019-04-25T11:22:18.842Z,29.50
2019-04-25T11:24:48.598Z,28.90
2019-04-25T11:27:18.052Z,29.50
2019-04-25T11:29:47.389Z,27.80
2019-04-25T11:32:19.884Z,28.50
2019-04-25T11:34:49.631Z,29.10
2019-04-25T11:37:20.846Z,28.90
2019-04-25T11:40:04.346Z,28.20
2019-04-25T11:42:34.033Z,28.70
2019-04-25T11:45:06.038Z,27.00
2019-04-25T11:47:36.089Z,26.90
2019-04-25T11:50:07.796Z,28.50
2019-04-25T11:52:37.189Z,27.70
2019-04-25T11:55:08.792Z,27.90
2019-04-25T11:57:38.596Z,27.40
2019-04-25T12:00:21.549Z,27.30
2019-04-25T12:02:40.923Z,27.60
2019-04-25T12:05:10.588Z,27.70
2019-04-25T12:07:39.954Z,28.30
2019-04-25T12:10:10.001Z,28.40
2019-04-25T12:12:39.363Z,28.80
2019-04-25T12:15:08.834Z,28.10
2019-04-25T12:17:39.398Z,28.90
2019-04-25T12:20:09.641Z,28.70
2019-04-25T12:22:38.946Z,28.70
2019-04-25T12:25:08.446Z,28.90
2019-04-25T12:27:37.738Z,28.60
2019-04-25T12:30:07.429Z,30.00
2019-04-25T12:32:36.811Z,28.00
2019-04-25T12:35:07.092Z,27.00
2019-04-25T12:37:36.460Z,29.10
2019-04-25T12:40:08.244Z,28.50
2019-04-25T12:42:37.612Z,28.80
2019-04-25T12:45:15.153Z,28.50
2019-04-25T12:47:56.151Z,28.40
2019-04-25T12:50:24.693Z,28.50
2019-04-25T12:52:55.049Z,28.00
2019-04-25T12:55:25.094Z,27.30
2019-04-25T12:57:55.567Z,26.90
2019-04-25T13:00:26.823Z,27.10
2019-04-25T13:02:56.575Z,26.90
2019-04-25T13:05:26.194Z,28.30
2019-04-25T13:07:57.390Z,26.90
2019-04-25T13:10:26.654Z,26.90
2019-04-25T13:12:55.979Z,26.50
2019-04-25T13:15:26.961Z,26.60
2019-04-25T13:17:56.759Z,25.10
2019-04-25T13:20:26.165Z,25.90
2019-04-25T13:22:55.847Z,26.10
2019-04-25T13:25:25.407Z,26.40
2019-04-25T13:28:07.125Z,24.50
2019-04-25T13:30:38.957Z,25.10
2019-04-25T13:33:25.937Z,23.80
2019-04-25T13:36:00.097Z,24.30
2019-04-25T13:38:29.525Z,24.00
2019-04-25T13:40:59.416Z,25.10
2019-04-25T13:43:28.798Z,23.40
2019-04-25T13:45:58.302Z,24.00
2019-04-25T13:48:28.007Z,22.50
2019-04-25T13:50:57.460Z,23.90
2019-04-25T13:53:27.379Z,23.70
2019-04-25T13:55:56.776Z,22.40
2019-04-25T13:58:30.531Z,23.60
2019-04-25T14:00:58.704Z,23.40
2019-04-25T14:03:28.170Z,23.50
2019-04-25T14:05:57.609Z,24.50
2019-04-25T14:08:27.061Z,22.60
2019-04-25T14:10:56.380Z,23.10
2019-04-25T14:13:26.551Z,22.70
2019-04-25T14:15:57.543Z,23.10
2019-04-25T14:18:31.561Z,22.10
2019-04-25T14:21:13.221Z,22.50
2019-04-25T14:23:44.146Z,23.70
2019-04-25T14:26:14.049Z,24.20
2019-04-25T14:28:44.296Z,24.40
2019-04-25T14:31:30.375Z,23.10
2019-04-25T14:33:47.452Z,22.80
2019-04-25T14:36:16.767Z,23.40
2019-04-25T14:38:46.146Z,23.20
2019-04-25T14:41:15.532Z,23.20
2019-04-25T14:43:46.460Z,22.60
2019-04-25T14:46:16.082Z,24.10
2019-04-25T14:48:45.477Z,24.20
2019-04-25T14:51:14.838Z,23.80
2019-04-25T14:53:44.227Z,23.50
2019-04-25T14:56:32.445Z,24.20
2019-04-25T14:59:01.963Z,23.00
2019-04-25T15:01:43.191Z,23.90
2019-04-25T15:04:02.366Z,24.70
2019-04-25T15:06:31.992Z,24.20
2019-04-25T15:09:01.468Z,24.80
2019-04-25T15:11:33.548Z,24.10
2019-04-25T15:14:03.012Z,25.10
2019-04-25T15:16:32.317Z,24.20
2019-04-25T15:19:02.557Z,24.30
2019-04-25T15:21:31.978Z,25.30
2019-04-25T15:24:01.320Z,26.30
2019-04-25T15:26:31.176Z,25.70
2019-04-25T15:29:00.706Z,25.10
2019-04-25T15:31:30.301Z,26.20
2019-04-25T15:34:02.281Z,26.20
2019-04-25T15:36:33.232Z,25.70
2019-04-25T15:39:20.817Z,25.00
2019-04-25T15:41:51.826Z,25.70
2019-04-25T15:44:26.566Z,24.90
2019-04-25T15:46:57.663Z,25.00
2019-04-25T15:49:27.130Z,24.60
2019-04-25T15:51:56.452Z,24.60
2019-04-25T15:54:26.476Z,25.50
2019-04-25T15:56:56.018Z,25.00
2019-04-25T15:59:25.365Z,27.50
2019-04-25T16:01:54.741Z,31.70
2019-04-25T16:04:24.130Z,34.20
2019-04-25T16:06:53.591Z,36.80
2019-04-25T16:09:24.557Z,39.40
2019-04-25T16:14:53.983Z,42.00
2019-04-25T16:17:23.364Z,44.20
2019-04-25T16:19:53.656Z,45.70
2019-04-25T16:22:22.986Z,46.70
2019-04-25T16:24:52.347Z,47.80
2019-04-25T16:27:21.950Z,48.20
2019-04-25T16:29:51.306Z,48.20
2019-04-25T16:32:22.283Z,47.30
2019-04-25T16:34:51.611Z,46.40
2019-04-25T16:37:21.260Z,46.20
2019-04-25T16:39:50.652Z,46.40
2019-04-25T16:42:20.036Z,46.00
2019-04-25T16:44:49.355Z,46.60
2019-04-25T16:47:20.314Z,46.90
2019-04-25T16:49:49.707Z,47.30
2019-04-25T16:52:19.306Z,47.70
2019-04-25T16:54:48.678Z,48.60
2019-04-25T16:57:18.076Z,48.90
2019-04-25T16:59:47.555Z,48.70
2019-04-25T17:02:17.125Z,48.70
2019-04-25T17:04:46.434Z,48.80
2019-04-25T17:07:16.091Z,48.90
2019-04-25T17:09:45.610Z,48.80
2019-04-25T17:12:15.919Z,49.10
2019-04-25T17:14:46.942Z,49.40
2019-04-25T17:17:33.734Z,47.60
2019-04-25T17:20:08.164Z,46.70
2019-04-25T17:22:37.496Z,46.80
2019-04-25T17:25:07.043Z,45.80
2019-04-25T17:27:37.371Z,45.20
2019-04-25T17:30:07.737Z,43.90
2019-04-25T17:32:55.437Z,44.60
2019-04-25T17:35:26.954Z,43.40
2019-04-25T17:38:07.010Z,43.40
2019-04-25T17:40:36.384Z,43.50
2019-04-25T17:43:11.137Z,43.80
2019-04-25T17:45:37.025Z,44.40
2019-04-25T17:48:06.504Z,44.70
2019-04-25T17:50:35.950Z,45.50
2019-04-25T17:53:05.525Z,45.90
2019-04-25T17:55:35.062Z,46.30
2019-04-25T17:58:04.634Z,46.60
2019-04-25T18:00:35.741Z,47.10
2019-04-25T18:03:06.695Z,47.40
2019-04-25T18:05:36.439Z,48.00
2019-04-25T18:08:06.048Z,48.70
2019-04-25T18:10:36.005Z,49.10
2019-04-25T18:13:05.910Z,49.50
2019-04-25T18:15:37.653Z,50.30
2019-04-25T18:18:08.904Z,50.80
2019-04-25T18:20:40.888Z,51.40
2019-04-25T18:23:12.048Z,51.80
2019-04-25T18:25:43.293Z,52.40
2019-04-25T18:28:20.338Z,52.90
2019-04-25T18:30:49.927Z,53.50
2019-04-25T18:33:20.984Z,53.80
2019-04-25T18:35:51.946Z,54.30
2019-04-25T18:38:25.908Z,54.50
2019-04-25T18:40:59.834Z,54.80
2019-04-25T18:43:42.924Z,54.90
2019-04-25T18:46:13.967Z,54.90
2019-04-25T18:48:43.292Z,54.90
2019-04-25T18:51:12.637Z,55.10
2019-04-25T18:53:49.631Z,55.10
2019-04-25T18:56:20.657Z,55.10
2019-04-25T18:59:06.730Z,55.00
2019-04-25T19:01:54.693Z,54.90
2019-04-25T19:04:25.751Z,55.10
2019-04-25T19:06:58.270Z,55.20
2019-04-25T19:09:26.307Z,55.30
2019-04-25T19:11:55.710Z,55.50
2019-04-25T19:14:27.180Z,55.80
2019-04-25T19:16:57.364Z,56.10
2019-04-25T19:19:26.768Z,56.10
2019-04-25T19:21:56.166Z,56.30
2019-04-25T19:24:25.510Z,56.40
2019-04-25T19:26:54.862Z,56.40
2019-04-25T19:29:24.249Z,56.50
2019-04-25T19:31:53.862Z,56.70
2019-04-25T19:34:23.352Z,56.80
2019-04-25T19:36:52.703Z,57.00
2019-04-25T19:39:23.778Z,57.10
2019-04-25T19:41:54.864Z,57.30
2019-04-25T19:44:25.951Z,57.40
2019-04-25T19:46:55.305Z,57.50
2019-04-25T19:49:24.755Z,57.70
2019-04-25T19:51:54.103Z,57.80
2019-04-25T19:54:23.483Z,58.00
2019-04-25T19:56:52.858Z,58.10
2019-04-25T19:59:22.353Z,58.20
2019-04-25T20:01:53.473Z,58.70
2019-04-25T20:04:24.596Z,58.80
2019-04-25T20:07:11.799Z,58.50
2019-04-25T20:09:51.790Z,58.90
2019-04-25T20:12:25.918Z,59.00
2019-04-25T20:14:55.325Z,59.10
2019-04-25T20:17:24.730Z,59.30
2019-04-25T20:19:54.201Z,60.00
2019-04-25T20:22:23.609Z,59.60
2019-04-25T20:24:53.204Z,59.80
2019-04-25T20:27:22.503Z,60.00
2019-04-25T20:29:52.685Z,60.10
2019-04-25T20:32:22.128Z,60.20
2019-04-25T20:34:51.477Z,60.50
2019-04-25T20:37:20.853Z,60.70
2019-04-25T20:39:50.210Z,61.20
2019-04-25T20:42:19.627Z,61.40
2019-04-25T20:44:49.608Z,61.00
2019-04-25T20:47:19.130Z,61.40
2019-04-25T20:49:48.803Z,61.70
2019-04-25T20:52:18.243Z,62.00
2019-04-25T20:54:48.839Z,62.10
2019-04-25T20:57:18.273Z,62.20
2019-04-25T20:59:49.343Z,62.50
2019-04-25T21:02:18.871Z,62.60
2019-04-25T21:04:48.918Z,62.80
2019-04-25T21:07:18.833Z,62.80
2019-04-25T21:09:48.961Z,62.90
2019-04-25T21:12:19.386Z,63.10
2019-04-25T21:14:53.221Z,63.20
2019-04-25T21:17:36.347Z,63.50
2019-04-25T21:20:08.965Z,63.40
2019-04-25T21:22:38.273Z,63.60
2019-04-25T21:25:07.963Z,63.50
2019-04-25T21:27:37.437Z,63.90
2019-04-25T21:30:08.277Z,63.80
2019-04-25T21:32:55.239Z,63.90
2019-04-25T21:35:25.172Z,64.10
2019-04-25T21:37:55.441Z,64.20
2019-04-25T21:40:42.131Z,64.60
2019-04-25T21:43:19.139Z,64.60
2019-04-25T21:45:48.628Z,64.80
2019-04-25T21:48:18.313Z,64.80
2019-04-25T21:50:47.911Z,64.80
2019-04-25T21:53:17.230Z,64.80
2019-04-25T21:55:46.817Z,65.10
2019-04-25T21:58:16.493Z,65.20
2019-04-25T22:00:58.083Z,65.50
2019-04-25T22:03:29.349Z,65.70
2019-04-25T22:05:59.106Z,65.70
2019-04-25T22:08:28.404Z,66.10
2019-04-25T22:10:58.954Z,66.20
2019-04-25T22:13:28.644Z,66.60
2019-04-25T22:15:58.525Z,66.70
2019-04-25T22:18:29.034Z,66.30
2019-04-25T22:20:58.409Z,66.40
2019-04-25T22:23:29.053Z,67.80
2019-04-25T22:25:58.861Z,66.90
2019-04-25T22:28:29.242Z,67.00
2019-04-25T22:31:01.363Z,67.20
2019-04-25T22:33:47.604Z,67.60
2019-04-25T22:36:18.909Z,68.20
2019-04-25T22:38:49.949Z,67.80
2019-04-25T22:41:19.246Z,68.00
2019-04-25T22:43:50.667Z,68.20
2019-04-25T22:46:25.962Z,68.50
2019-04-25T22:48:51.256Z,68.90
2019-04-25T22:51:20.562Z,69.80
2019-04-25T22:53:50.158Z,69.70
2019-04-25T22:56:19.473Z,70.00
2019-04-25T22:58:48.765Z,70.10
2019-04-25T23:01:29.368Z,70.40
2019-04-25T23:04:03.474Z,70.30
2019-04-25T23:06:33.162Z,71.20
2019-04-25T23:09:02.661Z,71.50
2019-04-25T23:11:33.958Z,70.40
2019-04-25T23:14:04.822Z,71.20
2019-04-25T23:16:34.602Z,71.20
2019-04-25T23:19:04.347Z,71.70
2019-04-25T23:21:34.696Z,72.90
2019-04-25T23:24:04.636Z,72.10
2019-04-25T23:26:39.241Z,72.90
2019-04-25T23:29:10.182Z,72.30
2019-04-25T23:31:41.054Z,72.70
2019-04-25T23:34:10.879Z,73.10
2019-04-25T23:36:40.278Z,73.50
2019-04-25T23:39:10.233Z,72.90
2019-04-25T23:41:40.712Z,72.80
2019-04-25T23:44:10.110Z,73.50
2019-04-25T23:46:39.789Z,73.40
2019-04-25T23:49:09.100Z,73.50
2019-04-25T23:51:38.391Z,73.30
2019-04-25T23:54:08.861Z,73.80
2019-04-25T23:56:38.400Z,73.70
2019-04-25T23:59:08.863Z,73.60
